sensor_id;sensor_type;location;lat;lon;timestamp;temperature;humidity
24860;DHT22;12936;52.006;4.350;2023-08-31T00:00:44;15.70;99.90
24860;DHT22;12936;52.006;4.350;2023-08-31T00:03:16;15.60;99.90
24860;DHT22;12936;52.006;4.350;2023-08-31T00:05:47;15.60;99.90
24860;DHT22;12936;52.006;4.350;2023-08-31T00:08:21;15.60;99.90
24860;DHT22;12936;52.006;4.350;2023-08-31T00:10:56;15.50;99.90
24860;DHT22;12936;52.006;4.350;2023-08-31T00:13:28;15.50;99.90
24860;DHT22;12936;52.006;4.350;2023-08-31T00:16:01;15.50;99.90
24860;DHT22;12936;52.006;4.350;2023-08-31T00:18:34;15.50;99.90
24860;DHT22;12936;52.006;4.350;2023-08-31T00:21:23;15.50;99.90
24860;DHT22;12936;52.006;4.350;2023-08-31T00:23:51;15.50;99.90
24860;DHT22;12936;52.006;4.350;2023-08-31T00:26:21;15.40;99.90
24860;DHT22;12936;52.006;4.350;2023-08-31T00:28:49;15.40;99.90
24860;DHT22;12936;52.006;4.350;2023-08-31T00:31:18;15.40;99.90
24860;DHT22;12936;52.006;4.350;2023-08-31T00:33:48;15.40;99.90
24860;DHT22;12936;52.006;4.350;2023-08-31T00:36:20;15.40;99.90
24860;DHT22;12936;52.006;4.350;2023-08-31T00:38:51;15.40;99.90
24860;DHT22;12936;52.006;4.350;2023-08-31T00:41:24;15.40;99.90
24860;DHT22;12936;52.006;4.350;2023-08-31T00:43:53;15.40;99.90
24860;DHT22;12936;52.006;4.350;2023-08-31T00:46:25;15.40;99.90
24860;DHT22;12936;52.006;4.350;2023-08-31T00:48:58;15.40;99.90
24860;DHT22;12936;52.006;4.350;2023-08-31T00:51:48;15.40;99.90
24860;DHT22;12936;52.006;4.350;2023-08-31T00:54:18;15.40;99.90
24860;DHT22;12936;52.006;4.350;2023-08-31T00:56:52;15.40;99.90
24860;DHT22;12936;52.006;4.350;2023-08-31T00:59:21;15.30;99.90
24860;DHT22;12936;52.006;4.350;2023-08-31T01:02:07;15.40;99.90
24860;DHT22;12936;52.006;4.350;2023-08-31T01:04:56;15.30;99.90
24860;DHT22;12936;52.006;4.350;2023-08-31T01:07:41;15.30;99.90
24860;DHT22;12936;52.006;4.350;2023-08-31T01:10:22;15.30;99.90
24860;DHT22;12936;52.006;4.350;2023-08-31T01:13:02;15.30;99.90
24860;DHT22;12936;52.006;4.350;2023-08-31T01:15:32;15.30;99.90
24860;DHT22;12936;52.006;4.350;2023-08-31T01:18:02;15.30;99.90
24860;DHT22;12936;52.006;4.350;2023-08-31T01:20:41;15.20;99.90
24860;DHT22;12936;52.006;4.350;2023-08-31T01:23:15;15.20;99.90
24860;DHT22;12936;52.006;4.350;2023-08-31T01:25:47;15.30;99.90
24860;DHT22;12936;52.006;4.350;2023-08-31T01:28:36;15.20;99.90
24860;DHT22;12936;52.006;4.350;2023-08-31T01:31:26;15.20;99.90
24860;DHT22;12936;52.006;4.350;2023-08-31T01:34:18;15.20;99.90
24860;DHT22;12936;52.006;4.350;2023-08-31T01:36:50;15.10;99.90
24860;DHT22;12936;52.006;4.350;2023-08-31T01:39:44;15.10;99.90
24860;DHT22;12936;52.006;4.350;2023-08-31T01:42:20;15.10;99.90
24860;DHT22;12936;52.006;4.350;2023-08-31T01:44:51;15.10;99.90
24860;DHT22;12936;52.006;4.350;2023-08-31T01:48:03;15.10;99.90
24860;DHT22;12936;52.006;4.350;2023-08-31T01:50:34;15.10;99.90
24860;DHT22;12936;52.006;4.350;2023-08-31T01:53:06;15.10;99.90
24860;DHT22;12936;52.006;4.350;2023-08-31T01:55:35;15.10;99.90
24860;DHT22;12936;52.006;4.350;2023-08-31T01:58:08;15.10;99.90
24860;DHT22;12936;52.006;4.350;2023-08-31T02:00:41;15.10;99.90
24860;DHT22;12936;52.006;4.350;2023-08-31T02:03:14;15.10;99.90
24860;DHT22;12936;52.006;4.350;2023-08-31T02:05:45;15.20;99.90
24860;DHT22;12936;52.006;4.350;2023-08-31T02:08:14;15.20;99.90
24860;DHT22;12936;52.006;4.350;2023-08-31T02:10:46;15.10;99.90
24860;DHT22;12936;52.006;4.350;2023-08-31T02:13:24;15.20;99.90
24860;DHT22;12936;52.006;4.350;2023-08-31T02:15:55;15.20;99.90
24860;DHT22;12936;52.006;4.350;2023-08-31T02:18:24;15.20;99.90
24860;DHT22;12936;52.006;4.350;2023-08-31T02:20:54;15.20;99.90
24860;DHT22;12936;52.006;4.350;2023-08-31T02:23:24;15.20;99.90
24860;DHT22;12936;52.006;4.350;2023-08-31T02:25:53;15.20;99.90
24860;DHT22;12936;52.006;4.350;2023-08-31T02:28:23;15.20;99.90
24860;DHT22;12936;52.006;4.350;2023-08-31T02:30:58;15.20;99.90
24860;DHT22;12936;52.006;4.350;2023-08-31T02:33:29;15.20;99.90
24860;DHT22;12936;52.006;4.350;2023-08-31T02:35:58;15.20;99.90
24860;DHT22;12936;52.006;4.350;2023-08-31T02:38:26;15.20;99.90
24860;DHT22;12936;52.006;4.350;2023-08-31T02:41:03;15.20;99.90
24860;DHT22;12936;52.006;4.350;2023-08-31T02:43:36;15.20;99.90
24860;DHT22;12936;52.006;4.350;2023-08-31T02:46:09;15.20;99.90
24860;DHT22;12936;52.006;4.350;2023-08-31T02:48:39;15.20;99.90
24860;DHT22;12936;52.006;4.350;2023-08-31T02:51:10;15.20;99.90
24860;DHT22;12936;52.006;4.350;2023-08-31T02:53:41;15.20;99.90
24860;DHT22;12936;52.006;4.350;2023-08-31T02:56:13;15.10;99.90
24860;DHT22;12936;52.006;4.350;2023-08-31T02:58:44;15.10;99.90
24860;DHT22;12936;52.006;4.350;2023-08-31T03:01:14;15.10;99.90
24860;DHT22;12936;52.006;4.350;2023-08-31T03:03:43;15.10;99.90
24860;DHT22;12936;52.006;4.350;2023-08-31T03:06:17;15.10;99.90
24860;DHT22;12936;52.006;4.350;2023-08-31T03:08:45;15.10;99.90
24860;DHT22;12936;52.006;4.350;2023-08-31T03:11:17;15.10;99.90
24860;DHT22;12936;52.006;4.350;2023-08-31T03:13:50;15.10;99.90
24860;DHT22;12936;52.006;4.350;2023-08-31T03:16:19;15.10;99.90
24860;DHT22;12936;52.006;4.350;2023-08-31T03:19:11;15.10;99.90
24860;DHT22;12936;52.006;4.350;2023-08-31T03:21:42;15.10;99.90
24860;DHT22;12936;52.006;4.350;2023-08-31T03:24:12;15.10;99.90
24860;DHT22;12936;52.006;4.350;2023-08-31T03:26:41;15.10;99.90
24860;DHT22;12936;52.006;4.350;2023-08-31T03:29:14;15.10;99.90
24860;DHT22;12936;52.006;4.350;2023-08-31T03:32:05;15.10;99.90
24860;DHT22;12936;52.006;4.350;2023-08-31T03:35:03;15.10;99.90
24860;DHT22;12936;52.006;4.350;2023-08-31T03:38:05;15.10;99.90
24860;DHT22;12936;52.006;4.350;2023-08-31T03:40:36;15.10;99.90
24860;DHT22;12936;52.006;4.350;2023-08-31T03:43:32;15.10;99.90
24860;DHT22;12936;52.006;4.350;2023-08-31T03:46:46;15.10;99.90
24860;DHT22;12936;52.006;4.350;2023-08-31T03:49:38;15.10;99.90
24860;DHT22;12936;52.006;4.350;2023-08-31T03:52:28;15.10;99.90
24860;DHT22;12936;52.006;4.350;2023-08-31T03:55:12;15.10;99.90
24860;DHT22;12936;52.006;4.350;2023-08-31T03:57:43;15.10;99.90
24860;DHT22;12936;52.006;4.350;2023-08-31T04:00:55;15.00;99.90
24860;DHT22;12936;52.006;4.350;2023-08-31T04:03:29;15.10;99.90
24860;DHT22;12936;52.006;4.350;2023-08-31T04:06:07;15.10;99.90
24860;DHT22;12936;52.006;4.350;2023-08-31T04:08:45;15.00;99.90
24860;DHT22;12936;52.006;4.350;2023-08-31T04:11:20;15.10;99.90
24860;DHT22;12936;52.006;4.350;2023-08-31T04:13:57;15.10;99.90
24860;DHT22;12936;52.006;4.350;2023-08-31T04:16:29;15.10;99.90
24860;DHT22;12936;52.006;4.350;2023-08-31T04:19:27;15.10;99.90
24860;DHT22;12936;52.006;4.350;2023-08-31T04:22:02;15.10;99.90
24860;DHT22;12936;52.006;4.350;2023-08-31T04:24:38;15.10;99.90
24860;DHT22;12936;52.006;4.350;2023-08-31T04:27:19;15.10;99.90
24860;DHT22;12936;52.006;4.350;2023-08-31T04:29:56;15.10;99.90
24860;DHT22;12936;52.006;4.350;2023-08-31T04:32:35;15.10;99.90
24860;DHT22;12936;52.006;4.350;2023-08-31T04:35:11;15.10;99.90
24860;DHT22;12936;52.006;4.350;2023-08-31T04:37:40;15.10;99.90
24860;DHT22;12936;52.006;4.350;2023-08-31T04:40:30;15.10;99.90
24860;DHT22;12936;52.006;4.350;2023-08-31T04:43:03;15.10;99.90
24860;DHT22;12936;52.006;4.350;2023-08-31T04:45:36;15.10;99.90
24860;DHT22;12936;52.006;4.350;2023-08-31T04:48:13;15.10;99.90
24860;DHT22;12936;52.006;4.350;2023-08-31T04:51:27;15.10;99.90
24860;DHT22;12936;52.006;4.350;2023-08-31T04:54:20;15.20;99.90
24860;DHT22;12936;52.006;4.350;2023-08-31T04:56:48;15.20;99.90
24860;DHT22;12936;52.006;4.350;2023-08-31T04:59:17;15.20;99.90
24860;DHT22;12936;52.006;4.350;2023-08-31T05:01:47;15.20;99.90
24860;DHT22;12936;52.006;4.350;2023-08-31T05:04:20;15.20;99.90
24860;DHT22;12936;52.006;4.350;2023-08-31T05:06:51;15.20;99.90
24860;DHT22;12936;52.006;4.350;2023-08-31T05:09:19;15.20;99.90
24860;DHT22;12936;52.006;4.350;2023-08-31T05:11:49;15.20;99.90
24860;DHT22;12936;52.006;4.350;2023-08-31T05:14:17;15.20;99.90
24860;DHT22;12936;52.006;4.350;2023-08-31T05:16:45;15.20;99.90
24860;DHT22;12936;52.006;4.350;2023-08-31T05:19:14;15.20;99.90
24860;DHT22;12936;52.006;4.350;2023-08-31T05:21:42;15.20;99.90
24860;DHT22;12936;52.006;4.350;2023-08-31T05:24:13;15.30;99.90
24860;DHT22;12936;52.006;4.350;2023-08-31T05:26:42;15.20;99.90
24860;DHT22;12936;52.006;4.350;2023-08-31T05:29:10;15.20;99.90
24860;DHT22;12936;52.006;4.350;2023-08-31T05:31:38;15.20;99.90
24860;DHT22;12936;52.006;4.350;2023-08-31T05:34:09;15.20;99.90
24860;DHT22;12936;52.006;4.350;2023-08-31T05:36:38;15.30;99.90
24860;DHT22;12936;52.006;4.350;2023-08-31T05:39:06;15.20;99.90
24860;DHT22;12936;52.006;4.350;2023-08-31T05:41:36;15.20;99.90
24860;DHT22;12936;52.006;4.350;2023-08-31T05:44:05;15.20;99.90
24860;DHT22;12936;52.006;4.350;2023-08-31T05:46:33;15.20;99.90
24860;DHT22;12936;52.006;4.350;2023-08-31T05:49:02;15.20;99.90
24860;DHT22;12936;52.006;4.350;2023-08-31T05:51:31;15.30;99.90
24860;DHT22;12936;52.006;4.350;2023-08-31T05:54:02;15.30;99.90
24860;DHT22;12936;52.006;4.350;2023-08-31T05:56:31;15.30;99.90
24860;DHT22;12936;52.006;4.350;2023-08-31T05:59:00;15.30;99.90
24860;DHT22;12936;52.006;4.350;2023-08-31T06:01:30;15.30;99.90
24860;DHT22;12936;52.006;4.350;2023-08-31T06:03:58;15.30;99.90
24860;DHT22;12936;52.006;4.350;2023-08-31T06:06:26;15.40;99.90
24860;DHT22;12936;52.006;4.350;2023-08-31T06:08:55;15.40;99.90
24860;DHT22;12936;52.006;4.350;2023-08-31T06:11:23;15.40;99.90
24860;DHT22;12936;52.006;4.350;2023-08-31T06:13:52;15.40;99.90
24860;DHT22;12936;52.006;4.350;2023-08-31T06:16:21;15.40;99.90
24860;DHT22;12936;52.006;4.350;2023-08-31T06:18:52;15.50;99.90
24860;DHT22;12936;52.006;4.350;2023-08-31T06:21:20;15.50;99.90
24860;DHT22;12936;52.006;4.350;2023-08-31T06:23:49;15.50;99.90
24860;DHT22;12936;52.006;4.350;2023-08-31T06:26:19;15.50;99.90
24860;DHT22;12936;52.006;4.350;2023-08-31T06:28:48;15.60;99.90
24860;DHT22;12936;52.006;4.350;2023-08-31T06:31:17;15.50;99.90
24860;DHT22;12936;52.006;4.350;2023-08-31T06:33:47;15.60;99.90
24860;DHT22;12936;52.006;4.350;2023-08-31T06:36:15;15.60;99.90
24860;DHT22;12936;52.006;4.350;2023-08-31T06:38:44;15.60;99.90
24860;DHT22;12936;52.006;4.350;2023-08-31T06:41:13;15.60;99.90
24860;DHT22;12936;52.006;4.350;2023-08-31T06:43:46;15.70;99.90
24860;DHT22;12936;52.006;4.350;2023-08-31T06:46:17;15.70;99.90
24860;DHT22;12936;52.006;4.350;2023-08-31T06:48:52;15.70;99.90
24860;DHT22;12936;52.006;4.350;2023-08-31T06:51:20;15.80;99.90
24860;DHT22;12936;52.006;4.350;2023-08-31T06:53:51;15.80;99.90
24860;DHT22;12936;52.006;4.350;2023-08-31T06:56:21;15.80;99.90
24860;DHT22;12936;52.006;4.350;2023-08-31T06:58:51;15.80;99.90
24860;DHT22;12936;52.006;4.350;2023-08-31T07:01:19;15.90;99.90
24860;DHT22;12936;52.006;4.350;2023-08-31T07:03:48;15.90;99.90
24860;DHT22;12936;52.006;4.350;2023-08-31T07:06:37;15.90;99.90
24860;DHT22;12936;52.006;4.350;2023-08-31T07:09:09;15.90;99.90
24860;DHT22;12936;52.006;4.350;2023-08-31T07:11:38;16.00;99.90
24860;DHT22;12936;52.006;4.350;2023-08-31T07:14:06;16.00;99.90
24860;DHT22;12936;52.006;4.350;2023-08-31T07:16:34;16.00;99.90
24860;DHT22;12936;52.006;4.350;2023-08-31T07:19:03;16.00;99.90
24860;DHT22;12936;52.006;4.350;2023-08-31T07:21:58;16.00;99.90
24860;DHT22;12936;52.006;4.350;2023-08-31T07:24:26;16.10;99.90
24860;DHT22;12936;52.006;4.350;2023-08-31T07:26:56;16.10;99.90
24860;DHT22;12936;52.006;4.350;2023-08-31T07:29:25;16.20;99.90
24860;DHT22;12936;52.006;4.350;2023-08-31T07:31:55;16.20;99.90
24860;DHT22;12936;52.006;4.350;2023-08-31T07:34:24;16.20;99.90
24860;DHT22;12936;52.006;4.350;2023-08-31T07:36:53;16.20;99.90
24860;DHT22;12936;52.006;4.350;2023-08-31T07:39:23;16.20;99.90
24860;DHT22;12936;52.006;4.350;2023-08-31T07:41:54;16.20;99.90
24860;DHT22;12936;52.006;4.350;2023-08-31T07:44:23;16.20;99.90
24860;DHT22;12936;52.006;4.350;2023-08-31T07:46:52;16.30;99.90
24860;DHT22;12936;52.006;4.350;2023-08-31T07:49:20;16.30;99.90
24860;DHT22;12936;52.006;4.350;2023-08-31T07:51:48;16.30;99.90
24860;DHT22;12936;52.006;4.350;2023-08-31T07:54:20;16.30;99.90
24860;DHT22;12936;52.006;4.350;2023-08-31T07:56:50;16.30;99.90
24860;DHT22;12936;52.006;4.350;2023-08-31T07:59:18;16.40;99.90
24860;DHT22;12936;52.006;4.350;2023-08-31T08:01:47;16.40;99.90
24860;DHT22;12936;52.006;4.350;2023-08-31T08:04:15;16.50;99.90
24860;DHT22;12936;52.006;4.350;2023-08-31T08:06:46;16.50;99.90
24860;DHT22;12936;52.006;4.350;2023-08-31T08:09:14;16.50;99.90
24860;DHT22;12936;52.006;4.350;2023-08-31T08:11:44;16.50;99.90
24860;DHT22;12936;52.006;4.350;2023-08-31T08:14:14;16.60;99.90
24860;DHT22;12936;52.006;4.350;2023-08-31T08:16:42;16.60;99.90
24860;DHT22;12936;52.006;4.350;2023-08-31T08:19:11;16.60;99.90
24860;DHT22;12936;52.006;4.350;2023-08-31T08:21:39;16.60;99.90
24860;DHT22;12936;52.006;4.350;2023-08-31T08:24:07;16.60;99.90
24860;DHT22;12936;52.006;4.350;2023-08-31T08:26:35;16.60;99.90
24860;DHT22;12936;52.006;4.350;2023-08-31T08:29:03;16.70;99.90
24860;DHT22;12936;52.006;4.350;2023-08-31T08:31:33;16.70;99.90
24860;DHT22;12936;52.006;4.350;2023-08-31T08:34:01;16.70;99.90
24860;DHT22;12936;52.006;4.350;2023-08-31T08:36:30;16.80;99.90
24860;DHT22;12936;52.006;4.350;2023-08-31T08:38:59;16.80;99.90
24860;DHT22;12936;52.006;4.350;2023-08-31T08:41:29;16.80;99.90
24860;DHT22;12936;52.006;4.350;2023-08-31T08:44:01;16.80;99.90
24860;DHT22;12936;52.006;4.350;2023-08-31T08:46:32;16.80;99.90
24860;DHT22;12936;52.006;4.350;2023-08-31T08:49:03;16.80;99.90
24860;DHT22;12936;52.006;4.350;2023-08-31T08:51:35;16.80;99.90
24860;DHT22;12936;52.006;4.350;2023-08-31T08:54:04;16.90;99.90
24860;DHT22;12936;52.006;4.350;2023-08-31T08:56:32;16.80;99.90
24860;DHT22;12936;52.006;4.350;2023-08-31T08:59:01;16.90;99.90
24860;DHT22;12936;52.006;4.350;2023-08-31T09:01:29;16.80;99.90
24860;DHT22;12936;52.006;4.350;2023-08-31T09:03:59;16.90;99.90
24860;DHT22;12936;52.006;4.350;2023-08-31T09:06:27;16.90;99.90
24860;DHT22;12936;52.006;4.350;2023-08-31T09:08:56;17.00;99.90
24860;DHT22;12936;52.006;4.350;2023-08-31T09:11:24;17.00;99.90
24860;DHT22;12936;52.006;4.350;2023-08-31T09:13:57;17.00;99.90
24860;DHT22;12936;52.006;4.350;2023-08-31T09:16:27;17.10;99.90
24860;DHT22;12936;52.006;4.350;2023-08-31T09:18:56;17.10;99.90
24860;DHT22;12936;52.006;4.350;2023-08-31T09:21:36;17.10;99.90
24860;DHT22;12936;52.006;4.350;2023-08-31T09:24:05;17.10;99.90
24860;DHT22;12936;52.006;4.350;2023-08-31T09:26:38;17.10;99.90
24860;DHT22;12936;52.006;4.350;2023-08-31T09:29:07;17.20;99.90
24860;DHT22;12936;52.006;4.350;2023-08-31T09:31:35;17.20;99.90
24860;DHT22;12936;52.006;4.350;2023-08-31T09:34:03;17.20;99.90
24860;DHT22;12936;52.006;4.350;2023-08-31T09:36:33;17.20;99.90
24860;DHT22;12936;52.006;4.350;2023-08-31T09:39:05;17.20;99.90
24860;DHT22;12936;52.006;4.350;2023-08-31T09:41:34;17.20;99.90
24860;DHT22;12936;52.006;4.350;2023-08-31T09:44:15;17.30;99.90
24860;DHT22;12936;52.006;4.350;2023-08-31T09:46:44;17.30;99.90
24860;DHT22;12936;52.006;4.350;2023-08-31T09:49:15;17.40;99.90
24860;DHT22;12936;52.006;4.350;2023-08-31T09:51:45;17.40;99.90
24860;DHT22;12936;52.006;4.350;2023-08-31T09:54:16;17.40;99.90
24860;DHT22;12936;52.006;4.350;2023-08-31T09:56:46;17.50;99.90
24860;DHT22;12936;52.006;4.350;2023-08-31T09:59:16;17.40;99.90
24860;DHT22;12936;52.006;4.350;2023-08-31T10:01:45;17.50;99.90
24860;DHT22;12936;52.006;4.350;2023-08-31T10:04:15;17.50;99.90
24860;DHT22;12936;52.006;4.350;2023-08-31T10:06:43;17.50;99.90
24860;DHT22;12936;52.006;4.350;2023-08-31T10:09:15;17.60;99.90
24860;DHT22;12936;52.006;4.350;2023-08-31T10:11:44;17.60;99.90
24860;DHT22;12936;52.006;4.350;2023-08-31T10:14:13;17.60;99.90
24860;DHT22;12936;52.006;4.350;2023-08-31T10:16:44;17.60;99.90
24860;DHT22;12936;52.006;4.350;2023-08-31T10:19:13;17.60;99.90
24860;DHT22;12936;52.006;4.350;2023-08-31T10:21:41;17.60;99.90
24860;DHT22;12936;52.006;4.350;2023-08-31T10:24:11;17.60;99.90
24860;DHT22;12936;52.006;4.350;2023-08-31T10:26:41;17.60;99.90
24860;DHT22;12936;52.006;4.350;2023-08-31T10:29:26;17.70;99.90
24860;DHT22;12936;52.006;4.350;2023-08-31T10:32:00;17.70;99.90
24860;DHT22;12936;52.006;4.350;2023-08-31T10:34:35;17.70;99.90
24860;DHT22;12936;52.006;4.350;2023-08-31T10:37:19;17.70;99.90
24860;DHT22;12936;52.006;4.350;2023-08-31T10:39:48;17.70;99.90
24860;DHT22;12936;52.006;4.350;2023-08-31T10:42:19;17.70;99.90
24860;DHT22;12936;52.006;4.350;2023-08-31T10:44:51;17.70;99.90
24860;DHT22;12936;52.006;4.350;2023-08-31T10:47:19;17.70;99.90
24860;DHT22;12936;52.006;4.350;2023-08-31T10:50:16;17.80;99.90
24860;DHT22;12936;52.006;4.350;2023-08-31T10:52:45;17.80;99.90
24860;DHT22;12936;52.006;4.350;2023-08-31T10:55:13;17.80;99.90
24860;DHT22;12936;52.006;4.350;2023-08-31T10:57:42;17.80;99.90
24860;DHT22;12936;52.006;4.350;2023-08-31T11:00:12;17.80;99.90
24860;DHT22;12936;52.006;4.350;2023-08-31T11:02:43;17.90;99.90
24860;DHT22;12936;52.006;4.350;2023-08-31T11:05:12;17.90;99.90
24860;DHT22;12936;52.006;4.350;2023-08-31T11:07:42;17.90;99.90
24860;DHT22;12936;52.006;4.350;2023-08-31T11:10:13;17.90;99.90
24860;DHT22;12936;52.006;4.350;2023-08-31T11:12:44;18.00;99.90
24860;DHT22;12936;52.006;4.350;2023-08-31T11:15:13;18.00;99.90
24860;DHT22;12936;52.006;4.350;2023-08-31T11:17:42;18.00;99.90
24860;DHT22;12936;52.006;4.350;2023-08-31T11:20:13;18.00;99.90
24860;DHT22;12936;52.006;4.350;2023-08-31T11:22:46;18.00;99.90
24860;DHT22;12936;52.006;4.350;2023-08-31T11:25:17;18.00;99.90
24860;DHT22;12936;52.006;4.350;2023-08-31T11:27:58;18.00;99.90
24860;DHT22;12936;52.006;4.350;2023-08-31T11:30:27;18.10;99.90
24860;DHT22;12936;52.006;4.350;2023-08-31T11:32:55;18.10;99.90
24860;DHT22;12936;52.006;4.350;2023-08-31T11:35:23;18.10;99.90
24860;DHT22;12936;52.006;4.350;2023-08-31T11:37:55;18.10;99.90
24860;DHT22;12936;52.006;4.350;2023-08-31T11:40:23;18.10;99.90
24860;DHT22;12936;52.006;4.350;2023-08-31T11:42:53;18.20;99.90
24860;DHT22;12936;52.006;4.350;2023-08-31T11:45:24;18.20;99.90
24860;DHT22;12936;52.006;4.350;2023-08-31T11:47:53;18.20;99.90
24860;DHT22;12936;52.006;4.350;2023-08-31T11:50:23;18.20;99.90
24860;DHT22;12936;52.006;4.350;2023-08-31T11:52:51;18.30;99.90
24860;DHT22;12936;52.006;4.350;2023-08-31T11:55:20;18.30;99.90
24860;DHT22;12936;52.006;4.350;2023-08-31T11:57:50;18.30;99.90
24860;DHT22;12936;52.006;4.350;2023-08-31T12:00:19;18.30;99.90
24860;DHT22;12936;52.006;4.350;2023-08-31T12:02:56;18.30;99.90
24860;DHT22;12936;52.006;4.350;2023-08-31T12:05:25;18.30;99.90
24860;DHT22;12936;52.006;4.350;2023-08-31T12:07:54;18.40;99.90
24860;DHT22;12936;52.006;4.350;2023-08-31T12:10:24;18.40;99.90
24860;DHT22;12936;52.006;4.350;2023-08-31T12:12:52;18.50;99.90
24860;DHT22;12936;52.006;4.350;2023-08-31T12:15:24;18.50;99.90
24860;DHT22;12936;52.006;4.350;2023-08-31T12:18:00;18.60;99.90
24860;DHT22;12936;52.006;4.350;2023-08-31T12:20:34;18.60;99.90
24860;DHT22;12936;52.006;4.350;2023-08-31T12:23:07;18.70;99.90
24860;DHT22;12936;52.006;4.350;2023-08-31T12:25:37;18.70;99.90
24860;DHT22;12936;52.006;4.350;2023-08-31T12:28:05;18.70;99.90
24860;DHT22;12936;52.006;4.350;2023-08-31T12:30:33;18.70;99.90
24860;DHT22;12936;52.006;4.350;2023-08-31T12:33:03;18.80;99.90
24860;DHT22;12936;52.006;4.350;2023-08-31T12:35:31;18.80;99.90
24860;DHT22;12936;52.006;4.350;2023-08-31T12:38:00;18.80;99.90
24860;DHT22;12936;52.006;4.350;2023-08-31T12:40:28;18.90;99.90
24860;DHT22;12936;52.006;4.350;2023-08-31T12:42:56;18.90;99.90
24860;DHT22;12936;52.006;4.350;2023-08-31T12:45:24;19.00;99.90
24860;DHT22;12936;52.006;4.350;2023-08-31T12:47:52;19.00;99.90
24860;DHT22;12936;52.006;4.350;2023-08-31T12:50:21;19.00;99.90
24860;DHT22;12936;52.006;4.350;2023-08-31T12:52:49;19.10;99.90
24860;DHT22;12936;52.006;4.350;2023-08-31T12:55:18;19.00;99.90
24860;DHT22;12936;52.006;4.350;2023-08-31T12:57:46;19.00;99.90
24860;DHT22;12936;52.006;4.350;2023-08-31T13:00:15;19.10;99.90
24860;DHT22;12936;52.006;4.350;2023-08-31T13:02:44;19.10;99.90
24860;DHT22;12936;52.006;4.350;2023-08-31T13:05:12;19.10;99.90
24860;DHT22;12936;52.006;4.350;2023-08-31T13:07:42;19.20;99.90
24860;DHT22;12936;52.006;4.350;2023-08-31T13:10:11;19.20;99.90
24860;DHT22;12936;52.006;4.350;2023-08-31T13:12:39;19.20;99.90
24860;DHT22;12936;52.006;4.350;2023-08-31T13:15:08;19.20;99.90
24860;DHT22;12936;52.006;4.350;2023-08-31T13:17:36;19.30;99.90
24860;DHT22;12936;52.006;4.350;2023-08-31T13:20:05;19.30;99.90
24860;DHT22;12936;52.006;4.350;2023-08-31T13:22:35;19.40;99.90
24860;DHT22;12936;52.006;4.350;2023-08-31T13:25:04;19.50;99.90
24860;DHT22;12936;52.006;4.350;2023-08-31T13:27:32;19.50;99.90
24860;DHT22;12936;52.006;4.350;2023-08-31T13:30:01;19.60;99.90
24860;DHT22;12936;52.006;4.350;2023-08-31T13:32:32;19.70;99.90
24860;DHT22;12936;52.006;4.350;2023-08-31T13:35:01;19.90;99.90
24860;DHT22;12936;52.006;4.350;2023-08-31T13:37:29;19.90;99.90
24860;DHT22;12936;52.006;4.350;2023-08-31T13:39:59;20.00;99.90
24860;DHT22;12936;52.006;4.350;2023-08-31T13:42:33;20.10;99.90
24860;DHT22;12936;52.006;4.350;2023-08-31T13:45:06;20.20;99.90
24860;DHT22;12936;52.006;4.350;2023-08-31T13:47:34;20.40;99.90
24860;DHT22;12936;52.006;4.350;2023-08-31T13:50:03;20.50;99.90
24860;DHT22;12936;52.006;4.350;2023-08-31T13:52:32;20.60;99.90
24860;DHT22;12936;52.006;4.350;2023-08-31T13:55:01;20.70;99.90
24860;DHT22;12936;52.006;4.350;2023-08-31T13:57:32;20.80;99.90
24860;DHT22;12936;52.006;4.350;2023-08-31T14:00:00;20.80;99.90
24860;DHT22;12936;52.006;4.350;2023-08-31T14:02:28;20.90;99.90
24860;DHT22;12936;52.006;4.350;2023-08-31T14:04:56;21.00;99.90
24860;DHT22;12936;52.006;4.350;2023-08-31T14:07:25;21.00;99.90
24860;DHT22;12936;52.006;4.350;2023-08-31T14:09:53;21.10;99.90
24860;DHT22;12936;52.006;4.350;2023-08-31T14:12:22;21.20;99.90
24860;DHT22;12936;52.006;4.350;2023-08-31T14:14:53;21.20;99.90
24860;DHT22;12936;52.006;4.350;2023-08-31T14:17:21;21.30;99.90
24860;DHT22;12936;52.006;4.350;2023-08-31T14:19:49;21.30;99.90
24860;DHT22;12936;52.006;4.350;2023-08-31T14:22:17;21.50;99.90
24860;DHT22;12936;52.006;4.350;2023-08-31T14:24:46;21.50;99.90
24860;DHT22;12936;52.006;4.350;2023-08-31T14:27:14;21.60;99.90
24860;DHT22;12936;52.006;4.350;2023-08-31T14:29:42;21.70;99.90
24860;DHT22;12936;52.006;4.350;2023-08-31T14:32:12;21.90;99.90
24860;DHT22;12936;52.006;4.350;2023-08-31T14:34:40;22.00;99.90
24860;DHT22;12936;52.006;4.350;2023-08-31T14:37:08;22.10;99.90
24860;DHT22;12936;52.006;4.350;2023-08-31T14:39:36;22.20;99.90
24860;DHT22;12936;52.006;4.350;2023-08-31T14:42:05;22.30;99.90
24860;DHT22;12936;52.006;4.350;2023-08-31T14:44:35;22.40;99.90
24860;DHT22;12936;52.006;4.350;2023-08-31T14:47:03;22.40;99.90
24860;DHT22;12936;52.006;4.350;2023-08-31T14:49:34;22.50;99.90
24860;DHT22;12936;52.006;4.350;2023-08-31T14:52:03;22.50;99.90
24860;DHT22;12936;52.006;4.350;2023-08-31T14:54:33;22.50;99.90
24860;DHT22;12936;52.006;4.350;2023-08-31T14:57:02;22.50;99.90
24860;DHT22;12936;52.006;4.350;2023-08-31T14:59:34;22.60;99.90
24860;DHT22;12936;52.006;4.350;2023-08-31T15:02:02;22.60;99.90
24860;DHT22;12936;52.006;4.350;2023-08-31T15:04:35;22.60;99.90
24860;DHT22;12936;52.006;4.350;2023-08-31T15:07:03;22.60;99.90
24860;DHT22;12936;52.006;4.350;2023-08-31T15:09:33;22.60;99.90
24860;DHT22;12936;52.006;4.350;2023-08-31T15:12:01;22.60;99.90
24860;DHT22;12936;52.006;4.350;2023-08-31T15:14:29;22.50;99.90
24860;DHT22;12936;52.006;4.350;2023-08-31T15:16:58;22.40;99.90
24860;DHT22;12936;52.006;4.350;2023-08-31T15:19:26;22.30;99.90
24860;DHT22;12936;52.006;4.350;2023-08-31T15:21:55;22.30;99.90
24860;DHT22;12936;52.006;4.350;2023-08-31T15:24:23;22.20;99.90
24860;DHT22;12936;52.006;4.350;2023-08-31T15:26:52;22.20;99.90
24860;DHT22;12936;52.006;4.350;2023-08-31T15:29:20;22.10;99.90
24860;DHT22;12936;52.006;4.350;2023-08-31T15:31:48;22.10;99.90
24860;DHT22;12936;52.006;4.350;2023-08-31T15:34:16;22.10;99.90
24860;DHT22;12936;52.006;4.350;2023-08-31T15:36:44;22.00;99.90
24860;DHT22;12936;52.006;4.350;2023-08-31T15:39:14;21.90;99.90
24860;DHT22;12936;52.006;4.350;2023-08-31T15:41:42;21.80;99.90
24860;DHT22;12936;52.006;4.350;2023-08-31T15:44:10;21.80;99.90
24860;DHT22;12936;52.006;4.350;2023-08-31T15:46:38;21.70;99.90
24860;DHT22;12936;52.006;4.350;2023-08-31T15:49:07;21.60;99.90
24860;DHT22;12936;52.006;4.350;2023-08-31T15:51:55;21.50;99.90
24860;DHT22;12936;52.006;4.350;2023-08-31T15:54:25;21.50;99.90
24860;DHT22;12936;52.006;4.350;2023-08-31T15:56:56;21.40;99.90
24860;DHT22;12936;52.006;4.350;2023-08-31T15:59:24;21.40;99.90